sensor_id;sensor_type;location;lat;lon;timestamp;pressure;altitude;pressure_sealevel;temperature;humidity
48027;BME280;50714;49.208;5.364;2023-04-10T00:06:38;99902.84;;;7.91;63.22
48027;BME280;50714;49.208;5.364;2023-04-10T00:16:40;99905.47;;;7.76;64.04
48027;BME280;50714;49.208;5.364;2023-04-10T00:26:41;99901.31;;;7.58;64.03
48027;BME280;50714;49.208;5.364;2023-04-10T00:36:41;99872.72;;;7.34;64.22
48027;BME280;50714;49.208;5.364;2023-04-10T00:46:42;99853.56;;;7.37;64.57
48027;BME280;50714;49.208;5.364;2023-04-10T00:56:43;99829.06;;;7.40;65.63
48027;BME280;50714;49.208;5.364;2023-04-10T01:16:55;99821.59;;;7.58;64.93
48027;BME280;50714;49.208;5.364;2023-04-10T01:37:03;99822.63;;;7.18;68.50
48027;BME280;50714;49.208;5.364;2023-04-10T01:47:05;99816.63;;;7.08;67.03
48027;BME280;50714;49.208;5.364;2023-04-10T01:57:06;99810.94;;;7.03;66.77
48027;BME280;50714;49.208;5.364;2023-04-10T02:07:19;99799.16;;;7.12;68.74
48027;BME280;50714;49.208;5.364;2023-04-10T02:17:26;99798.97;;;7.13;67.97
48027;BME280;50714;49.208;5.364;2023-04-10T02:27:32;99792.94;;;7.11;68.09
48027;BME280;50714;49.208;5.364;2023-04-10T02:37:33;99797.88;;;6.92;67.36
48027;BME280;50714;49.208;5.364;2023-04-10T02:47:35;99788.66;;;6.86;67.93
48027;BME280;50714;49.208;5.364;2023-04-10T02:57:35;99776.66;;;6.74;68.60
48027;BME280;50714;49.208;5.364;2023-04-10T03:07:35;99766.47;;;6.61;68.76
48027;BME280;50714;49.208;5.364;2023-04-10T03:17:36;99761.56;;;6.65;68.95
48027;BME280;50714;49.208;5.364;2023-04-10T03:27:37;99752.69;;;6.64;69.35
48027;BME280;50714;49.208;5.364;2023-04-10T03:37:37;99751.41;;;6.44;70.45
48027;BME280;50714;49.208;5.364;2023-04-10T03:47:38;99751.06;;;6.47;70.65
48027;BME280;50714;49.208;5.364;2023-04-10T03:57:38;99751.91;;;6.39;70.64
48027;BME280;50714;49.208;5.364;2023-04-10T04:07:38;99741.22;;;6.23;71.38
48027;BME280;50714;49.208;5.364;2023-04-10T04:17:39;99757.13;;;6.25;71.38
48027;BME280;50714;49.208;5.364;2023-04-10T04:27:39;99773.72;;;6.28;71.43
48027;BME280;50714;49.208;5.364;2023-04-10T04:37:40;99765.34;;;6.15;71.89
48027;BME280;50714;49.208;5.364;2023-04-10T04:47:41;99780.25;;;6.09;71.79
48027;BME280;50714;49.208;5.364;2023-04-10T04:57:41;99767.38;;;6.05;71.96
48027;BME280;50714;49.208;5.364;2023-04-10T05:07:41;99762.00;;;5.89;71.96
48027;BME280;50714;49.208;5.364;2023-04-10T05:17:41;99759.31;;;5.97;71.95
48027;BME280;50714;49.208;5.364;2023-04-10T05:27:42;99750.09;;;5.91;72.74
48027;BME280;50714;49.208;5.364;2023-04-10T05:37:42;99754.97;;;5.96;72.27
48027;BME280;50714;49.208;5.364;2023-04-10T05:47:43;99756.97;;;6.18;73.15
48027;BME280;50714;49.208;5.364;2023-04-10T05:57:43;99767.81;;;6.41;73.90
48027;BME280;50714;49.208;5.364;2023-04-10T06:07:43;99760.72;;;6.64;73.80
48027;BME280;50714;49.208;5.364;2023-04-10T06:17:44;99766.47;;;7.08;71.87
48027;BME280;50714;49.208;5.364;2023-04-10T06:27:44;99756.88;;;7.45;70.56
48027;BME280;50714;49.208;5.364;2023-04-10T06:37:45;99757.75;;;7.68;71.48
48027;BME280;50714;49.208;5.364;2023-04-10T06:47:45;99760.88;;;8.40;68.07
48027;BME280;50714;49.208;5.364;2023-04-10T06:57:46;99761.38;;;9.17;67.33
48027;BME280;50714;49.208;5.364;2023-04-10T07:07:46;99753.56;;;10.01;66.40
48027;BME280;50714;49.208;5.364;2023-04-10T07:17:46;99756.31;;;10.85;63.15
48027;BME280;50714;49.208;5.364;2023-04-10T07:27:47;99757.81;;;11.42;63.31
48027;BME280;50714;49.208;5.364;2023-04-10T07:37:47;99746.31;;;11.87;61.59
48027;BME280;50714;49.208;5.364;2023-04-10T07:47:51;99749.47;;;12.11;60.90
48027;BME280;50714;49.208;5.364;2023-04-10T07:57:51;99753.84;;;12.05;59.49
48027;BME280;50714;49.208;5.364;2023-04-10T08:07:51;99744.28;;;12.16;58.94
48027;BME280;50714;49.208;5.364;2023-04-10T08:17:52;99730.97;;;12.21;58.89
48027;BME280;50714;49.208;5.364;2023-04-10T08:27:52;99707.34;;;14.94;59.02
48027;BME280;50714;49.208;5.364;2023-04-10T08:37:53;99710.88;;;18.00;50.17
48027;BME280;50714;49.208;5.364;2023-04-10T08:47:55;99693.00;;;19.90;47.18
48027;BME280;50714;49.208;5.364;2023-04-10T08:57:57;99693.34;;;21.15;45.78
48027;BME280;50714;49.208;5.364;2023-04-10T09:07:57;99696.38;;;22.47;42.37
48027;BME280;50714;49.208;5.364;2023-04-10T09:18:02;99690.25;;;23.01;39.44
48027;BME280;50714;49.208;5.364;2023-04-10T09:28:04;99695.28;;;22.48;38.91
48027;BME280;50714;49.208;5.364;2023-04-10T09:38:18;99683.97;;;20.22;36.18
48027;BME280;50714;49.208;5.364;2023-04-10T09:48:20;99683.59;;;19.81;40.80
48027;BME280;50714;49.208;5.364;2023-04-10T09:58:21;99682.38;;;20.63;40.45
48027;BME280;50714;49.208;5.364;2023-04-10T10:08:24;99673.94;;;21.32;40.11
48027;BME280;50714;49.208;5.364;2023-04-10T10:18:49;99633.72;;;22.24;35.47
48027;BME280;50714;49.208;5.364;2023-04-10T10:28:51;99623.25;;;22.36;37.90
48027;BME280;50714;49.208;5.364;2023-04-10T10:49:19;99583.31;;;21.17;38.44
48027;BME280;50714;49.208;5.364;2023-04-10T10:59:56;99582.44;;;21.01;35.96
48027;BME280;50714;49.208;5.364;2023-04-10T11:09:57;99552.69;;;20.67;34.80
48027;BME280;50714;49.208;5.364;2023-04-10T11:19:59;99549.28;;;21.18;38.49
48027;BME280;50714;49.208;5.364;2023-04-10T11:29:59;99536.97;;;21.30;38.21
48027;BME280;50714;49.208;5.364;2023-04-10T11:40:04;99533.94;;;21.22;36.84
48027;BME280;50714;49.208;5.364;2023-04-10T11:50:05;99527.53;;;20.91;37.80
48027;BME280;50714;49.208;5.364;2023-04-10T12:00:07;99527.19;;;20.20;38.74
48027;BME280;50714;49.208;5.364;2023-04-10T12:10:08;99524.88;;;19.64;39.03
48027;BME280;50714;49.208;5.364;2023-04-10T12:20:08;99537.75;;;19.32;39.27
48027;BME280;50714;49.208;5.364;2023-04-10T12:30:09;99533.03;;;19.27;40.23
48027;BME280;50714;49.208;5.364;2023-04-10T12:40:10;99522.28;;;19.48;40.09
48027;BME280;50714;49.208;5.364;2023-04-10T12:50:15;99502.97;;;19.59;40.54
48027;BME280;50714;49.208;5.364;2023-04-10T13:00:18;99494.00;;;19.69;40.16
48027;BME280;50714;49.208;5.364;2023-04-10T13:10:18;99490.13;;;19.60;40.72
48027;BME280;50714;49.208;5.364;2023-04-10T13:20:19;99473.72;;;19.38;40.15
48027;BME280;50714;49.208;5.364;2023-04-10T13:30:21;99459.84;;;19.13;40.41
48027;BME280;50714;49.208;5.364;2023-04-10T13:40:21;99432.75;;;18.57;41.20
48027;BME280;50714;49.208;5.364;2023-04-10T13:50:22;99428.25;;;18.24;41.18
48027;BME280;50714;49.208;5.364;2023-04-10T14:00:22;99399.19;;;18.13;41.16
48027;BME280;50714;49.208;5.364;2023-04-10T14:10:22;99388.59;;;17.95;41.48
48027;BME280;50714;49.208;5.364;2023-04-10T14:20:23;99386.34;;;17.70;41.64
48027;BME280;50714;49.208;5.364;2023-04-10T14:30:23;99368.91;;;17.54;42.54
48027;BME280;50714;49.208;5.364;2023-04-10T14:40:28;99350.75;;;17.43;42.92
48027;BME280;50714;49.208;5.364;2023-04-10T14:50:30;99341.94;;;17.19;42.95
48027;BME280;50714;49.208;5.364;2023-04-10T15:00:31;99340.72;;;16.93;43.81
48027;BME280;50714;49.208;5.364;2023-04-10T15:10:31;99300.94;;;16.76;44.64
48027;BME280;50714;49.208;5.364;2023-04-10T15:20:32;99299.31;;;16.80;43.89
48027;BME280;50714;49.208;5.364;2023-04-10T15:30:32;99314.28;;;16.77;43.86
48027;BME280;50714;49.208;5.364;2023-04-10T15:40:33;99310.22;;;16.46;43.91
48027;BME280;50714;49.208;5.364;2023-04-10T15:50:33;99312.09;;;16.29;43.87
48027;BME280;50714;49.208;5.364;2023-04-10T16:00:35;99278.72;;;16.22;44.04
48027;BME280;50714;49.208;5.364;2023-04-10T16:10:36;99241.25;;;16.12;45.08
48027;BME280;50714;49.208;5.364;2023-04-10T16:20:36;99233.56;;;16.09;45.65
48027;BME280;50714;49.208;5.364;2023-04-10T16:30:36;99209.59;;;16.23;45.06
48027;BME280;50714;49.208;5.364;2023-04-10T16:40:38;99183.53;;;16.27;44.17
48027;BME280;50714;49.208;5.364;2023-04-10T16:50:39;99174.44;;;16.21;44.60
48027;BME280;50714;49.208;5.364;2023-04-10T17:00:39;99201.97;;;16.08;45.07
48027;BME280;50714;49.208;5.364;2023-04-10T17:10:39;99218.81;;;16.05;44.96
48027;BME280;50714;49.208;5.364;2023-04-10T17:20:40;99196.38;;;15.98;45.41
48027;BME280;50714;49.208;5.364;2023-04-10T17:30:41;99166.41;;;15.81;46.16
48027;BME280;50714;49.208;5.364;2023-04-10T17:40:42;99188.56;;;15.73;46.09
48027;BME280;50714;49.208;5.364;2023-04-10T17:50:43;99170.31;;;15.57;46.70
48027;BME280;50714;49.208;5.364;2023-04-10T18:00:44;99165.72;;;15.46;47.14
48027;BME280;50714;49.208;5.364;2023-04-10T18:10:45;99178.19;;;15.30;46.90
48027;BME280;50714;49.208;5.364;2023-04-10T18:20:45;99162.97;;;15.29;47.50
48027;BME280;50714;49.208;5.364;2023-04-10T18:30:45;99180.22;;;15.23;48.37
48027;BME280;50714;49.208;5.364;2023-04-10T18:40:46;99197.28;;;15.07;51.12
48027;BME280;50714;49.208;5.364;2023-04-10T18:50:50;99197.34;;;14.72;54.33
48027;BME280;50714;49.208;5.364;2023-04-10T19:00:52;99171.34;;;14.29;55.66
48027;BME280;50714;49.208;5.364;2023-04-10T19:10:52;99146.88;;;14.06;56.34
48027;BME280;50714;49.208;5.364;2023-04-10T19:20:53;99138.84;;;13.99;56.27
48027;BME280;50714;49.208;5.364;2023-04-10T19:30:53;99132.59;;;13.87;56.84
48027;BME280;50714;49.208;5.364;2023-04-10T19:40:53;99147.69;;;13.94;56.54
48027;BME280;50714;49.208;5.364;2023-04-10T19:50:54;99153.59;;;13.91;57.43
48027;BME280;50714;49.208;5.364;2023-04-10T20:00:55;99157.69;;;13.82;59.58
48027;BME280;50714;49.208;5.364;2023-04-10T20:11:00;99199.97;;;13.60;62.33
48027;BME280;50714;49.208;5.364;2023-04-10T20:21:01;99222.31;;;13.25;67.01
48027;BME280;50714;49.208;5.364;2023-04-10T20:31:01;99239.44;;;13.01;70.25
48027;BME280;50714;49.208;5.364;2023-04-10T20:41:02;99244.44;;;12.61;69.68
48027;BME280;50714;49.208;5.364;2023-04-10T20:51:03;99209.00;;;12.44;70.46
48027;BME280;50714;49.208;5.364;2023-04-10T21:01:04;99226.16;;;12.32;71.13
48027;BME280;50714;49.208;5.364;2023-04-10T21:11:06;99208.34;;;12.24;71.76
48027;BME280;50714;49.208;5.364;2023-04-10T21:21:07;99202.84;;;12.30;72.10
48027;BME280;50714;49.208;5.364;2023-04-10T21:31:07;99185.31;;;12.15;73.17
48027;BME280;50714;49.208;5.364;2023-04-10T21:41:08;99178.75;;;12.04;74.68
48027;BME280;50714;49.208;5.364;2023-04-10T21:51:09;99198.59;;;11.91;75.13
48027;BME280;50714;49.208;5.364;2023-04-10T22:01:09;99205.66;;;11.92;75.60
48027;BME280;50714;49.208;5.364;2023-04-10T22:11:10;99193.63;;;11.88;77.32
48027;BME280;50714;49.208;5.364;2023-04-10T22:21:11;99200.94;;;11.81;78.46
48027;BME280;50714;49.208;5.364;2023-04-10T22:31:16;99201.63;;;11.77;80.06
48027;BME280;50714;49.208;5.364;2023-04-10T22:41:17;99152.53;;;11.73;79.22
48027;BME280;50714;49.208;5.364;2023-04-10T22:51:17;99138.25;;;11.66;79.60
48027;BME280;50714;49.208;5.364;2023-04-10T23:01:17;99138.19;;;11.79;79.70
48027;BME280;50714;49.208;5.364;2023-04-10T23:11:18;99151.72;;;11.79;80.01
48027;BME280;50714;49.208;5.364;2023-04-10T23:21:18;99169.19;;;11.77;80.41
48027;BME280;50714;49.208;5.364;2023-04-10T23:31:19;99177.34;;;11.63;81.12
48027;BME280;50714;49.208;5.364;2023-04-10T23:41:19;99186.81;;;11.48;80.84
48027;BME280;50714;49.208;5.364;2023-04-10T23:51:20;99192.06;;;11.36;80.94
